Time;durP1;ratioP1;P1;durP2;ratioP2;P2;SDS_P1;SDS_P2;PMS_P1;PMS_P2;Temp;Humidity;BMP_temperature;BMP_pressure;BME280_temperature;BME280_humidity;BME280_pressure;Samples;Min_cycle;Max_cycle;Signal;HPM_P1;HPM_P2
2023/02/11 00:00:24;;;;;;;44.65;32.08;;;7.30;99.90;;;;;;5076871;28;20344;-79
2023/02/11 00:02:51;;;;;;;58.25;36.70;;;7.30;99.90;;;;;;5073888;28;20248;-80
2023/02/11 00:05:19;;;;;;;49.72;31.25;;;7.30;99.90;;;;;;5070919;28;20226;-80
2023/02/11 00:07:46;;;;;;;50.95;32.65;;;7.30;99.90;;;;;;5077598;28;20240;-78
2023/02/11 00:10:16;;;;;;;59.90;30.88;;;7.30;99.90;;;;;;5079085;28;20267;-79
2023/02/11 00:12:43;;;;;;;48.00;30.23;;;7.30;99.90;;;;;;5074570;28;20237;-80
2023/02/11 00:15:11;;;;;;;53.78;31.25;;;7.30;99.90;;;;;;5071717;28;20222;-79
2023/02/11 00:17:38;;;;;;;51.47;30.52;;;7.30;99.90;;;;;;5065654;28;21367;-80
2023/02/11 00:20:11;;;;;;;60.20;31.50;;;7.30;99.90;;;;;;5076088;28;20198;-79
2023/02/11 00:22:38;;;;;;;62.75;32.15;;;7.30;99.90;;;;;;5072706;28;20209;-79
2023/02/11 00:25:06;;;;;;;61.15;31.27;;;7.30;99.90;;;;;;5073762;28;20198;-80
2023/02/11 00:27:36;;;;;;;60.72;34.60;;;7.30;99.90;;;;;;5076519;28;20202;-78
2023/02/11 00:30:04;;;;;;;51.92;32.45;;;7.30;99.90;;;;;;5068171;28;20304;-79
2023/02/11 00:32:31;;;;;;;53.70;31.50;;;7.20;99.90;;;;;;5078639;28;20238;-79
2023/02/11 00:34:59;;;;;;;54.53;32.33;;;7.30;99.90;;;;;;5070811;28;20245;-80
2023/02/11 00:37:26;;;;;;;55.17;28.80;;;7.40;99.90;;;;;;5068737;28;20238;-79
2023/02/11 00:39:53;;;;;;;55.50;29.40;;;7.30;99.90;;;;;;5074912;28;20290;-79
2023/02/11 00:42:20;;;;;;;50.63;30.00;;;7.30;99.90;;;;;;5070920;28;20706;-79
2023/02/11 00:44:48;;;;;;;52.20;29.25;;;7.40;99.90;;;;;;5069280;28;20226;-79
2023/02/11 00:47:15;;;;;;;47.08;29.85;;;7.30;99.90;;;;;;5067634;28;20209;-80
2023/02/11 00:49:42;;;;;;;54.47;30.55;;;7.30;99.90;;;;;;5068580;28;20229;-80
2023/02/11 00:52:09;;;;;;;47.17;27.42;;;7.30;99.90;;;;;;5067048;28;20292;-80
2023/02/11 00:54:36;;;;;;;48.80;30.80;;;7.30;99.90;;;;;;5073972;28;20277;-80
2023/02/11 00:57:03;;;;;;;57.15;29.75;;;7.40;99.90;;;;;;5075306;28;20292;-79
2023/02/11 00:59:30;;;;;;;52.85;31.25;;;7.30;99.90;;;;;;5078960;28;20196;-79
2023/02/11 01:01:59;;;;;;;57.60;33.58;;;7.40;99.90;;;;;;5077366;28;20222;-81
2023/02/11 01:04:26;;;;;;;46.85;26.50;;;7.40;99.90;;;;;;5073662;28;20206;-78
2023/02/11 01:06:53;;;;;;;50.35;31.08;;;7.40;99.90;;;;;;5082462;28;20318;-80
2023/02/11 01:09:20;;;;;;;47.50;30.77;;;7.30;99.90;;;;;;5077435;28;20202;-78
2023/02/11 01:11:47;;;;;;;60.40;32.17;;;7.40;99.90;;;;;;5064332;28;20205;-79
2023/02/11 01:14:15;;;;;;;51.17;29.60;;;7.40;99.90;;;;;;5077144;28;20244;-80
2023/02/11 01:16:43;;;;;;;48.05;31.83;;;7.40;99.90;;;;;;5077254;28;20252;-79
2023/02/11 01:19:11;;;;;;;46.28;28.77;;;7.40;99.90;;;;;;5071037;28;20214;-77
2023/02/11 01:21:38;;;;;;;46.92;28.58;;;7.40;99.90;;;;;;5078252;28;20301;-79
2023/02/11 01:24:05;;;;;;;41.60;27.75;;;7.40;99.90;;;;;;5078146;28;20280;-79
2023/02/11 01:26:32;;;;;;;49.15;30.65;;;7.40;99.90;;;;;;5077117;28;20222;-80
2023/02/11 01:29:00;;;;;;;51.22;30.02;;;7.50;99.90;;;;;;5078780;28;20249;-80
2023/02/11 01:31:31;;;;;;;52.90;30.27;;;7.40;99.90;;;;;;5070845;28;20214;-79
2023/02/11 01:33:58;;;;;;;58.72;30.58;;;7.40;99.90;;;;;;5064076;28;20225;-80
2023/02/11 01:36:27;;;;;;;60.25;32.45;;;7.40;99.90;;;;;;5058186;28;20222;-80
2023/02/11 01:38:55;;;;;;;53.17;30.55;;;7.50;99.90;;;;;;5061983;28;20204;-80
2023/02/11 01:41:23;;;;;;;51.67;31.05;;;7.40;99.90;;;;;;5073239;28;20510;-80
2023/02/11 01:43:50;;;;;;;55.13;29.23;;;7.50;99.90;;;;;;5072268;28;21070;-80
2023/02/11 01:46:31;;;;;;;44.33;25.60;;;7.60;99.90;;;;;;5073649;28;20351;-80
2023/02/11 01:49:03;;;;;;;45.47;29.27;;;7.50;99.90;;;;;;5072736;28;20224;-80
2023/02/11 01:51:38;;;;;;;46.85;30.15;;;7.60;99.90;;;;;;5057077;28;20283;-79
2023/02/11 01:59:46;;;;;;;43.72;26.80;;;7.60;99.90;;;;;;5060071;28;20194;-79
2023/02/11 02:02:17;;;;;;;45.15;27.38;;;7.60;99.90;;;;;;5063394;28;20289;-78
2023/02/11 02:04:52;;;;;;;42.75;27.88;;;7.60;99.90;;;;;;5060164;28;20652;-79
2023/02/11 02:07:28;;;;;;;36.00;25.25;;;7.70;99.90;;;;;;5069537;28;20202;-79
2023/02/11 02:10:00;;;;;;;45.63;27.42;;;7.70;99.90;;;;;;5055224;28;20237;-78
2023/02/11 02:12:26;;;;;;;42.13;24.13;;;7.70;99.90;;;;;;5073192;28;20285;-78
2023/02/11 02:15:24;;;;;;;40.00;25.80;;;7.60;99.90;;;;;;5060430;28;20227;-78
2023/02/11 02:18:35;;;;;;;40.25;25.40;;;7.60;99.90;;;;;;5067375;28;20224;-79
2023/02/11 02:21:29;;;;;;;35.70;24.35;;;7.60;99.90;;;;;;5033388;28;20198;-79
2023/02/11 02:24:22;;;;;;;46.00;25.33;;;7.50;99.90;;;;;;5069666;28;20206;-79
2023/02/11 02:27:18;;;;;;;49.45;25.45;;;7.50;99.90;;;;;;5062007;28;20302;-78
2023/02/11 02:30:21;;;;;;;46.53;26.52;;;7.60;99.90;;;;;;5049403;28;20499;-78
2023/02/11 02:33:00;;;;;;;38.63;25.10;;;7.70;99.90;;;;;;5062425;28;20199;-79
2023/02/11 02:35:37;;;;;;;39.40;24.40;;;7.60;99.90;;;;;;5070954;28;20321;-79
2023/02/11 02:38:11;;;;;;;48.95;24.05;;;7.60;99.90;;;;;;5059998;28;20292;-79
2023/02/11 02:40:45;;;;;;;37.13;25.98;;;7.60;99.90;;;;;;5055924;28;20210;-79
2023/02/11 02:43:15;;;;;;;46.25;24.65;;;7.60;99.90;;;;;;5056840;28;20641;-80
2023/02/11 02:45:42;;;;;;;44.28;23.70;;;7.60;99.90;;;;;;5059978;28;20250;-79
2023/02/11 02:48:25;;;;;;;42.08;24.95;;;7.60;99.90;;;;;;5068035;28;20253;-81
2023/02/11 02:50:59;;;;;;;45.70;25.02;;;7.60;99.90;;;;;;5071301;28;20214;-78
2023/02/11 02:53:38;;;;;;;61.45;26.90;;;7.50;99.90;;;;;;5071986;28;20252;-78
2023/02/11 02:56:11;;;;;;;40.15;25.48;;;7.60;99.90;;;;;;5067015;28;20240;-79
2023/02/11 02:59:12;;;;;;;40.75;22.88;;;7.50;99.90;;;;;;5072720;28;20558;-77
2023/02/11 03:01:49;;;;;;;40.40;25.25;;;7.50;99.90;;;;;;5056204;28;20687;-79
2023/02/11 03:04:25;;;;;;;37.58;25.55;;;7.50;99.90;;;;;;5060504;28;20280;-80
2023/02/11 03:06:57;;;;;;;34.63;25.42;;;7.60;99.90;;;;;;5070621;28;20253;-80
2023/02/11 03:09:29;;;;;;;47.28;23.52;;;7.60;99.90;;;;;;5068972;28;20214;-78
2023/02/11 03:11:56;;;;;;;43.42;26.77;;;7.60;99.90;;;;;;5060706;28;20234;-79
2023/02/11 03:14:26;;;;;;;42.75;23.33;;;7.60;99.90;;;;;;5071897;28;20206;-79
2023/02/11 03:16:56;;;;;;;38.95;23.30;;;7.70;99.90;;;;;;5071882;28;20222;-79
2023/02/11 03:19:28;;;;;;;59.45;23.77;;;7.60;99.90;;;;;;5065196;28;20246;-79
2023/02/11 03:21:56;;;;;;;37.13;21.92;;;7.70;99.90;;;;;;5069927;28;20301;-79
2023/02/11 03:24:30;;;;;;;39.35;23.40;;;7.70;99.90;;;;;;5074915;28;20221;-79
2023/02/11 03:27:01;;;;;;;45.70;24.40;;;7.80;99.90;;;;;;5066343;28;20243;-79
2023/02/11 03:29:35;;;;;;;35.38;22.05;;;7.70;99.90;;;;;;5075914;28;20293;-79
2023/02/11 03:32:07;;;;;;;38.65;24.80;;;7.70;99.90;;;;;;5073736;28;20198;-81
2023/02/11 03:34:41;;;;;;;37.08;22.27;;;7.80;99.90;;;;;;5072489;28;20201;-79
2023/02/11 03:37:13;;;;;;;45.72;23.67;;;7.70;99.90;;;;;;5072179;28;20214;-79
2023/02/11 03:39:45;;;;;;;42.05;21.48;;;7.80;99.90;;;;;;5070952;28;21040;-79
2023/02/11 03:42:14;;;;;;;36.38;21.27;;;7.80;99.90;;;;;;5064714;28;20743;-78
2023/02/11 03:44:46;;;;;;;31.15;20.52;;;7.80;99.90;;;;;;5056778;28;20199;-80
2023/02/11 03:47:16;;;;;;;39.33;22.55;;;7.80;99.90;;;;;;5062276;28;20249;-80
2023/02/11 03:49:47;;;;;;;41.55;22.27;;;7.80;99.90;;;;;;5067456;28;20242;-78
2023/02/11 03:52:18;;;;;;;43.90;23.52;;;7.80;99.90;;;;;;5059113;28;20205;-77
2023/02/11 03:54:48;;;;;;;33.92;20.00;;;7.80;99.90;;;;;;5066944;28;20245;-80
2023/02/11 03:57:15;;;;;;;38.20;20.67;;;7.80;99.90;;;;;;5075366;28;20203;-79
2023/02/11 03:59:53;;;;;;;36.17;21.95;;;7.80;99.90;;;;;;5066156;28;20279;-80
2023/02/11 04:02:22;;;;;;;29.95;19.40;;;7.90;99.90;;;;;;5059886;28;20234;-79
2023/02/11 04:04:50;;;;;;;29.30;19.00;;;7.80;99.90;;;;;;5060990;28;20214;-79
2023/02/11 04:07:17;;;;;;;48.38;18.88;;;7.80;99.90;;;;;;5061641;28;20194;-79
2023/02/11 04:09:44;;;;;;;35.35;21.70;;;7.80;99.90;;;;;;5064444;28;20718;-79
2023/02/11 04:12:11;;;;;;;34.75;19.67;;;7.90;99.90;;;;;;5065764;28;20544;-80
2023/02/11 04:14:38;;;;;;;45.67;20.10;;;7.90;99.90;;;;;;5063704;28;20616;-79
2023/02/11 04:17:05;;;;;;;40.03;18.65;;;7.90;99.90;;;;;;5059309;28;20313;-79
2023/02/11 04:19:32;;;;;;;35.88;19.55;;;7.90;99.90;;;;;;5064178;28;20240;-79
2023/02/11 04:22:01;;;;;;;40.05;22.88;;;7.90;99.90;;;;;;5064200;28;20206;-80
2023/02/11 04:24:28;;;;;;;30.20;17.35;;;8.00;99.90;;;;;;5061873;28;20191;-79
2023/02/11 04:26:55;;;;;;;34.53;20.23;;;7.90;99.90;;;;;;5069107;28;20281;-79
2023/02/11 04:29:22;;;;;;;29.00;17.20;;;8.00;99.90;;;;;;5067110;28;20307;-81
2023/02/11 04:31:49;;;;;;;33.30;18.45;;;8.00;99.90;;;;;;5065040;28;20281;-78
2023/02/11 04:34:18;;;;;;;33.33;19.88;;;8.00;99.90;;;;;;5063636;28;20231;-78
2023/02/11 04:36:45;;;;;;;30.92;18.00;;;8.00;99.90;;;;;;5068390;28;20233;-78
2023/02/11 04:39:13;;;;;;;39.45;18.38;;;8.00;99.90;;;;;;5073301;28;20227;-79
2023/02/11 04:41:40;;;;;;;30.10;19.40;;;8.10;99.90;;;;;;5059917;28;20197;-80
2023/02/11 04:44:07;;;;;;;41.55;19.80;;;8.00;99.90;;;;;;5074354;28;20209;-79
2023/02/11 04:46:34;;;;;;;32.42;18.35;;;8.00;99.90;;;;;;5060132;28;20265;-78
2023/02/11 04:49:01;;;;;;;40.15;18.80;;;8.00;99.90;;;;;;5073879;28;20218;-79
2023/02/11 04:51:28;;;;;;;33.63;18.67;;;8.00;99.90;;;;;;5060009;28;20191;-79
2023/02/11 04:53:55;;;;;;;37.65;19.05;;;8.00;99.90;;;;;;5066643;28;20278;-80
2023/02/11 04:56:24;;;;;;;40.67;20.20;;;8.00;99.90;;;;;;5065904;28;20246;-79
2023/02/11 04:58:51;;;;;;;34.33;20.33;;;8.10;99.90;;;;;;5074234;28;20280;-80
2023/02/11 05:01:18;;;;;;;32.17;19.30;;;8.00;99.90;;;;;;5074669;28;20301;-78
2023/02/11 05:03:45;;;;;;;38.08;18.70;;;8.00;99.90;;;;;;5070395;28;20288;-78
2023/02/11 05:06:12;;;;;;;36.88;17.65;;;8.00;99.90;;;;;;5062721;28;20216;-79
2023/02/11 05:08:39;;;;;;;28.73;19.13;;;8.10;99.90;;;;;;5073563;28;20194;-78
2023/02/11 05:11:07;;;;;;;34.13;20.13;;;8.10;99.90;;;;;;5067914;28;20282;-79
2023/02/11 05:13:35;;;;;;;32.90;17.75;;;8.10;99.90;;;;;;5069128;28;20608;-79
2023/02/11 05:16:05;;;;;;;31.10;16.95;;;8.00;99.90;;;;;;5069126;28;20227;-78
2023/02/11 05:18:32;;;;;;;37.67;18.48;;;8.00;99.90;;;;;;5069367;28;20657;-80
2023/02/11 05:20:59;;;;;;;34.47;19.63;;;8.00;99.90;;;;;;5072940;28;20201;-80
2023/02/11 05:23:26;;;;;;;29.70;17.38;;;8.00;99.90;;;;;;5064920;28;20290;-78
2023/02/11 05:25:53;;;;;;;34.65;20.13;;;8.00;99.90;;;;;;5068615;28;20306;-79
2023/02/11 05:28:20;;;;;;;31.75;20.60;;;8.10;99.90;;;;;;5064527;28;20289;-78
2023/02/11 05:30:49;;;;;;;38.20;19.05;;;8.10;99.90;;;;;;5072369;28;20210;-79
2023/02/11 05:33:16;;;;;;;40.63;18.55;;;8.00;99.90;;;;;;5073878;28;20620;-80
2023/02/11 05:35:44;;;;;;;24.63;16.55;;;8.00;99.90;;;;;;5065627;28;20309;-79
2023/02/11 05:38:11;;;;;;;34.75;17.27;;;8.00;99.90;;;;;;5070532;28;20780;-79
2023/02/11 05:40:39;;;;;;;34.75;19.10;;;8.00;99.90;;;;;;5068358;28;20213;-78
2023/02/11 05:43:06;;;;;;;30.05;18.15;;;8.10;99.90;;;;;;5072437;28;20294;-80
2023/02/11 05:45:33;;;;;;;34.08;19.38;;;8.10;99.90;;;;;;5061071;28;20322;-79
2023/02/11 05:48:02;;;;;;;32.22;18.35;;;8.10;99.90;;;;;;5067512;28;20239;-78
2023/02/11 05:50:29;;;;;;;29.50;16.80;;;8.10;99.90;;;;;;5069011;28;20239;-79
2023/02/11 05:52:56;;;;;;;34.28;17.80;;;8.10;99.90;;;;;;5063719;28;20227;-79
2023/02/11 05:55:22;;;;;;;35.85;19.48;;;8.10;99.90;;;;;;5065121;28;20214;-79
2023/02/11 05:57:49;;;;;;;27.02;17.85;;;8.10;99.90;;;;;;5067024;28;20195;-80
2023/02/11 06:00:17;;;;;;;34.53;18.80;;;8.00;99.90;;;;;;5067181;28;20278;-79
2023/02/11 06:02:44;;;;;;;31.83;20.58;;;8.10;99.90;;;;;;5065596;28;20242;-78
2023/02/11 06:05:12;;;;;;;46.15;19.48;;;8.10;99.90;;;;;;5066805;28;20223;-80
2023/02/11 06:07:39;;;;;;;38.00;19.00;;;8.10;99.90;;;;;;5065452;28;20201;-80
2023/02/11 06:10:07;;;;;;;37.35;17.52;;;8.10;99.90;;;;;;5071450;28;20254;-80
2023/02/11 06:12:34;;;;;;;37.38;19.13;;;8.10;99.90;;;;;;5069923;28;20209;-79
2023/02/11 06:15:01;;;;;;;30.02;18.50;;;8.10;99.90;;;;;;5061241;28;20297;-80
2023/02/11 06:17:30;;;;;;;40.75;21.08;;;8.10;99.90;;;;;;5064261;28;20283;-79
2023/02/11 06:19:58;;;;;;;35.00;19.20;;;8.10;99.90;;;;;;5071023;28;20637;-81
2023/02/11 06:22:27;;;;;;;35.83;17.90;;;8.10;99.90;;;;;;5078613;28;20214;-79
2023/02/11 06:24:54;;;;;;;32.85;19.00;;;8.10;99.90;;;;;;5064102;28;20298;-79
2023/02/11 06:27:21;;;;;;;34.58;19.83;;;8.10;99.90;;;;;;5072851;28;20227;-80
2023/02/11 06:29:48;;;;;;;38.33;20.23;;;8.10;99.90;;;;;;5072155;28;20622;-79
2023/02/11 06:32:15;;;;;;;30.02;18.38;;;8.20;99.90;;;;;;5070560;28;20207;-78
2023/02/11 06:34:42;;;;;;;38.03;20.00;;;8.10;99.90;;;;;;5066862;28;20648;-79
2023/02/11 06:37:09;;;;;;;41.78;20.65;;;8.00;99.90;;;;;;5063245;28;20302;-80
2023/02/11 06:39:37;;;;;;;41.85;22.50;;;8.00;99.90;;;;;;5062138;28;20696;-80
2023/02/11 06:42:04;;;;;;;38.20;22.13;;;8.00;99.90;;;;;;5070345;28;20239;-80
2023/02/11 06:44:31;;;;;;;32.17;19.08;;;8.10;99.90;;;;;;5070485;28;20234;-80
2023/02/11 06:46:58;;;;;;;37.92;21.90;;;8.00;99.90;;;;;;5069809;28;20223;-80
2023/02/11 06:49:25;;;;;;;32.53;18.83;;;8.00;99.90;;;;;;5065180;28;20194;-79
2023/02/11 06:51:52;;;;;;;44.35;21.85;;;8.10;99.90;;;;;;5072332;28;20277;-79
2023/02/11 06:54:19;;;;;;;40.33;22.30;;;8.10;99.90;;;;;;5061514;28;20629;-78
2023/02/11 06:56:47;;;;;;;31.38;21.73;;;8.10;99.90;;;;;;5061436;28;20306;-78
2023/02/11 06:59:16;;;;;;;41.92;20.52;;;8.20;99.90;;;;;;5059530;28;20226;-78
2023/02/11 07:01:43;;;;;;;44.85;23.70;;;8.20;99.90;;;;;;5070791;28;20193;-78
2023/02/11 07:04:10;;;;;;;32.22;20.88;;;8.20;99.90;;;;;;5070015;28;20269;-79
2023/02/11 07:06:37;;;;;;;43.40;23.02;;;8.10;99.90;;;;;;5058288;28;20222;-78
2023/02/11 07:09:05;;;;;;;40.80;21.90;;;8.10;99.90;;;;;;5060888;28;20195;-79
2023/02/11 07:11:32;;;;;;;40.80;20.63;;;8.10;99.90;;;;;;5058041;28;20334;-79
2023/02/11 07:14:04;;;;;;;38.25;22.65;;;8.00;99.90;;;;;;5064975;28;20278;-76
2023/02/11 07:16:31;;;;;;;42.10;21.80;;;8.00;99.90;;;;;;5062772;28;20555;-79
2023/02/11 07:18:58;;;;;;;42.75;22.98;;;8.00;99.90;;;;;;5075594;28;20281;-79
2023/02/11 07:21:25;;;;;;;43.63;21.65;;;8.00;99.90;;;;;;5063501;28;20649;-78
2023/02/11 07:23:53;;;;;;;45.30;22.42;;;8.00;99.90;;;;;;5064910;28;20274;-78
2023/02/11 07:26:22;;;;;;;44.10;22.05;;;8.10;99.90;;;;;;5066381;28;20218;-78
2023/02/11 07:28:49;;;;;;;32.05;20.42;;;8.10;99.90;;;;;;5065531;28;20205;-78
2023/02/11 07:31:20;;;;;;;44.22;21.15;;;8.20;99.90;;;;;;5057429;28;20298;-78
2023/02/11 07:33:47;;;;;;;35.95;21.20;;;8.20;99.90;;;;;;5061880;28;20191;-78
2023/02/11 07:36:16;;;;;;;33.38;22.85;;;8.20;99.90;;;;;;5064694;28;20223;-78
2023/02/11 07:38:43;;;;;;;44.17;22.55;;;8.30;99.90;;;;;;5056457;28;20278;-78
2023/02/11 07:41:12;;;;;;;37.72;22.38;;;8.30;99.90;;;;;;5066806;28;20193;-78
2023/02/11 07:43:40;;;;;;;32.13;20.05;;;8.30;99.90;;;;;;5055409;28;20203;-78
2023/02/11 07:46:10;;;;;;;37.53;21.65;;;8.30;99.90;;;;;;5055074;28;20307;-78
2023/02/11 07:48:39;;;;;;;38.35;20.00;;;8.40;99.90;;;;;;5058373;28;20286;-77
2023/02/11 07:51:09;;;;;;;31.15;19.67;;;8.40;99.90;;;;;;5070889;28;20643;-77
2023/02/11 07:53:39;;;;;;;36.55;20.27;;;8.50;99.90;;;;;;5056411;28;20196;-78
2023/02/11 07:56:07;;;;;;;34.60;19.05;;;8.50;99.90;;;;;;5062790;28;20303;-77
2023/02/11 07:58:36;;;;;;;37.15;21.33;;;8.50;99.90;;;;;;5054384;28;20294;-79
2023/02/11 08:01:04;;;;;;;42.28;18.20;;;8.60;99.90;;;;;;5064613;28;20195;-77
2023/02/11 08:03:31;;;;;;;38.05;21.00;;;8.50;99.90;;;;;;5062636;28;20227;-77
2023/02/11 08:06:02;;;;;;;38.58;20.73;;;8.60;99.90;;;;;;5074813;28;20210;-76
2023/02/11 08:08:29;;;;;;;36.20;21.45;;;8.60;99.90;;;;;;5073916;28;20237;-77
2023/02/11 08:10:57;;;;;;;43.38;21.63;;;8.50;99.90;;;;;;5070528;28;20310;-77
2023/02/11 08:13:25;;;;;;;38.70;22.15;;;8.50;99.90;;;;;;5067036;28;20282;-77
2023/02/11 08:15:52;;;;;;;42.58;21.13;;;8.50;99.90;;;;;;5066900;28;20230;-78
2023/02/11 08:18:19;;;;;;;34.53;21.65;;;8.50;99.90;;;;;;5070688;28;20597;-77
2023/02/11 08:20:47;;;;;;;36.92;22.70;;;8.50;99.90;;;;;;5061806;28;20194;-77
2023/02/11 08:23:16;;;;;;;42.13;22.10;;;8.50;99.90;;;;;;5069549;28;20273;-79
2023/02/11 08:25:42;;;;;;;35.28;21.70;;;8.60;99.90;;;;;;5064652;28;20303;-77
2023/02/11 08:28:09;;;;;;;36.45;20.48;;;8.50;99.90;;;;;;5069404;28;20287;-78
2023/02/11 08:30:36;;;;;;;32.13;19.92;;;8.60;99.90;;;;;;5072835;28;20297;-78
2023/02/11 08:33:03;;;;;;;41.00;19.70;;;8.70;99.90;;;;;;5074521;28;20268;-78
2023/02/11 08:35:31;;;;;;;37.78;20.50;;;8.80;99.90;;;;;;5068861;28;20239;-78
2023/02/11 08:37:58;;;;;;;31.33;18.77;;;8.90;99.90;;;;;;5055945;28;20752;-78
2023/02/11 08:40:27;;;;;;;30.75;17.58;;;8.90;99.90;;;;;;5058947;28;20275;-77
2023/02/11 08:42:54;;;;;;;46.50;20.00;;;8.90;99.90;;;;;;5062521;28;20302;-77
2023/02/11 08:45:20;;;;;;;32.35;18.67;;;8.80;99.90;;;;;;5069669;28;20305;-78
2023/02/11 08:47:47;;;;;;;32.63;18.58;;;8.90;99.90;;;;;;5060529;28;20286;-78
2023/02/11 08:50:14;;;;;;;32.85;19.55;;;8.90;99.90;;;;;;5067064;28;20213;-77
2023/02/11 08:52:41;;;;;;;34.13;18.08;;;9.00;99.90;;;;;;5064514;28;20198;-75
2023/02/11 08:55:08;;;;;;;27.42;17.70;;;9.00;99.90;;;;;;5065604;28;20219;-75
2023/02/11 08:57:37;;;;;;;37.70;19.25;;;9.00;99.90;;;;;;5063054;28;20287;-76
2023/02/11 09:00:04;;;;;;;31.55;17.70;;;9.00;99.90;;;;;;5064815;28;20187;-74
2023/02/11 09:02:31;;;;;;;30.75;20.38;;;9.00;99.90;;;;;;5065655;28;20201;-74
2023/02/11 09:04:58;;;;;;;27.90;18.00;;;9.10;99.90;;;;;;5060718;28;20200;-75
2023/02/11 09:07:25;;;;;;;32.00;18.85;;;9.00;99.90;;;;;;5061728;28;20209;-74
2023/02/11 09:09:53;;;;;;;35.03;19.80;;;9.20;99.90;;;;;;5058203;28;20547;-74
2023/02/11 09:12:20;;;;;;;38.22;18.30;;;9.20;99.90;;;;;;5068328;28;20287;-77
2023/02/11 09:14:48;;;;;;;40.03;20.45;;;9.10;99.90;;;;;;5058099;28;20195;-74
2023/02/11 09:17:15;;;;;;;32.38;18.98;;;9.10;99.90;;;;;;5061159;28;20286;-79
2023/02/11 09:19:42;;;;;;;36.00;21.67;;;9.20;99.90;;;;;;5065376;28;20282;-78
2023/02/11 09:22:09;;;;;;;35.15;18.25;;;9.20;99.90;;;;;;5061247;28;20245;-80
2023/02/11 09:24:36;;;;;;;31.58;18.33;;;9.10;99.90;;;;;;5066262;28;20223;-76
2023/02/11 09:27:03;;;;;;;31.92;18.85;;;9.20;99.90;;;;;;5067612;28;20229;-77
2023/02/11 09:29:30;;;;;;;36.33;20.17;;;9.20;99.90;;;;;;5061419;28;20200;-79
2023/02/11 09:31:59;;;;;;;32.33;19.30;;;9.20;99.90;;;;;;5068663;28;20267;-78
2023/02/11 09:34:26;;;;;;;30.65;18.77;;;9.20;99.90;;;;;;5065911;28;20197;-76
2023/02/11 09:36:53;;;;;;;32.05;17.58;;;9.20;99.90;;;;;;5066607;28;20258;-76
2023/02/11 09:39:20;;;;;;;38.97;19.45;;;9.20;99.90;;;;;;5072335;28;20278;-75
2023/02/11 09:42:26;;;;;;;29.90;18.92;;;9.20;99.90;;;;;;5057323;28;20292;-76
2023/02/11 09:44:53;;;;;;;33.47;19.90;;;9.30;99.90;;;;;;5054284;28;20317;-76
2023/02/11 09:47:26;;;;;;;35.47;17.42;;;9.30;99.90;;;;;;5067196;28;20546;-75
2023/02/11 09:49:58;;;;;;;29.08;19.13;;;9.40;99.90;;;;;;5062185;28;20211;-75
2023/02/11 09:52:33;;;;;;;30.35;18.27;;;9.40;99.90;;;;;;5061439;28;20310;-75
2023/02/11 09:55:02;;;;;;;33.67;19.48;;;9.30;99.90;;;;;;5060552;28;20612;-75
2023/02/11 09:57:33;;;;;;;32.03;20.80;;;9.30;99.90;;;;;;5059347;28;20314;-75
2023/02/11 10:00:01;;;;;;;31.98;20.08;;;9.30;99.90;;;;;;5066835;28;20673;-76
2023/02/11 10:02:41;;;;;;;30.15;19.10;;;9.20;99.90;;;;;;5067120;28;20199;-76
2023/02/11 10:05:19;;;;;;;33.45;19.50;;;9.30;99.90;;;;;;5065612;28;20590;-75
2023/02/11 10:07:53;;;;;;;32.08;20.25;;;9.30;99.90;;;;;;5062670;28;20282;-77
2023/02/11 10:10:34;;;;;;;27.40;17.70;;;9.40;99.90;;;;;;5055888;28;20196;-76
2023/02/11 10:13:38;;;;;;;33.60;19.52;;;9.40;99.90;;;;;;5066936;28;20194;-75
2023/02/11 10:16:16;;;;;;;31.05;18.48;;;9.30;99.90;;;;;;5061480;28;20309;-75
2023/02/11 10:19:04;;;;;;;28.45;17.73;;;9.30;99.90;;;;;;5060298;28;20281;-75
2023/02/11 10:21:40;;;;;;;25.42;18.50;;;9.40;99.90;;;;;;5064905;28;20213;-75
2023/02/11 10:24:12;;;;;;;27.42;18.70;;;9.50;99.90;;;;;;5057592;28;20258;-74
2023/02/11 10:26:40;;;;;;;26.65;16.73;;;9.50;99.90;;;;;;5063108;28;20329;-75
2023/02/11 10:29:21;;;;;;;29.85;19.42;;;9.50;99.90;;;;;;5063715;28;20230;-76
2023/02/11 10:31:50;;;;;;;33.72;19.65;;;9.50;99.90;;;;;;5059820;28;20290;-75
2023/02/11 10:34:19;;;;;;;26.90;18.95;;;9.50;99.90;;;;;;5072429;28;20233;-75
2023/02/11 10:36:46;;;;;;;32.75;20.42;;;9.50;99.90;;;;;;5068262;28;20532;-75
2023/02/11 10:39:18;;;;;;;32.30;19.65;;;9.50;99.90;;;;;;5054379;28;20302;-74
2023/02/11 10:41:47;;;;;;;30.95;18.95;;;9.50;99.90;;;;;;5060927;28;20199;-75
2023/02/11 10:44:24;;;;;;;43.10;18.42;;;9.50;99.90;;;;;;5062482;28;20222;-75
2023/02/11 10:46:52;;;;;;;34.10;19.92;;;9.40;99.90;;;;;;5065655;28;20945;-75
2023/02/11 10:49:38;;;;;;;26.55;17.67;;;9.50;99.90;;;;;;5060587;28;20199;-76
2023/02/11 10:52:23;;;;;;;29.33;19.00;;;9.50;99.90;;;;;;5065926;28;20214;-76
2023/02/11 10:54:58;;;;;;;31.02;19.85;;;9.50;99.90;;;;;;5057751;28;20199;-75
2023/02/11 10:57:36;;;;;;;30.65;20.05;;;9.40;99.90;;;;;;5057312;28;20190;-75
2023/02/11 11:00:20;;;;;;;33.75;19.30;;;9.60;99.90;;;;;;5058302;28;20261;-76
2023/02/11 11:02:55;;;;;;;29.55;18.63;;;9.70;99.90;;;;;;5068033;28;20188;-75
2023/02/11 11:05:29;;;;;;;27.45;16.20;;;9.90;99.90;;;;;;5063478;28;20209;-74
2023/02/11 11:07:58;;;;;;;27.95;16.30;;;9.80;99.90;;;;;;5065332;28;20199;-74
2023/02/11 11:10:41;;;;;;;22.83;13.80;;;9.80;99.90;;;;;;5063784;28;20200;-76
2023/02/11 11:13:25;;;;;;;28.05;17.10;;;9.90;99.90;;;;;;5061234;28;20189;-75
2023/02/11 11:16:08;;;;;;;26.27;17.48;;;9.80;99.90;;;;;;5064035;28;20243;-76
2023/02/11 11:18:35;;;;;;;23.98;16.48;;;9.80;99.90;;;;;;5067177;28;20294;-76
2023/02/11 11:21:07;;;;;;;27.48;16.63;;;9.90;99.90;;;;;;5059885;28;20215;-75
2023/02/11 11:23:36;;;;;;;27.35;16.70;;;10.00;99.90;;;;;;5053988;28;20206;-74
2023/02/11 11:26:06;;;;;;;35.63;16.70;;;10.00;99.90;;;;;;5069050;28;20628;-75
2023/02/11 11:28:37;;;;;;;25.95;15.00;;;10.10;99.90;;;;;;5067689;28;20231;-75
2023/02/11 11:31:12;;;;;;;22.70;16.20;;;10.00;99.90;;;;;;5060730;28;20203;-75
2023/02/11 11:33:43;;;;;;;26.83;15.68;;;10.00;99.90;;;;;;5072371;28;20190;-75
2023/02/11 11:36:15;;;;;;;22.05;14.48;;;10.00;99.90;;;;;;5065063;28;20238;-74
2023/02/11 11:38:49;;;;;;;28.27;15.25;;;10.00;99.90;;;;;;5076264;28;20227;-75
2023/02/11 11:41:19;;;;;;;24.73;15.70;;;9.90;99.90;;;;;;5071110;28;20264;-75
2023/02/11 11:44:03;;;;;;;32.50;17.25;;;9.90;99.90;;;;;;5061036;28;20238;-75
2023/02/11 11:46:34;;;;;;;29.95;15.95;;;9.80;99.90;;;;;;5066085;28;20218;-77
2023/02/11 11:49:13;;;;;;;25.70;15.38;;;9.70;99.90;;;;;;5064848;28;20654;-75
2023/02/11 11:51:45;;;;;;;21.85;15.88;;;9.70;99.90;;;;;;5065821;28;20681;-76
2023/02/11 11:54:15;;;;;;;36.60;18.75;;;9.70;99.90;;;;;;5064526;28;20282;-75
2023/02/11 11:56:50;;;;;;;27.85;15.50;;;9.70;99.90;;;;;;5057993;28;20216;-75
2023/02/11 11:59:17;;;;;;;27.95;15.85;;;9.70;99.90;;;;;;5071364;28;20203;-74
2023/02/11 12:02:01;;;;;;;21.65;14.05;;;9.80;99.90;;;;;;5060704;28;20228;-75
2023/02/11 12:04:50;;;;;;;24.75;15.50;;;9.90;99.90;;;;;;5069857;28;20275;-75
2023/02/11 12:07:35;;;;;;;23.83;14.68;;;9.90;99.90;;;;;;5074045;28;20195;-75
2023/02/11 12:10:31;;;;;;;26.52;14.48;;;10.00;99.90;;;;;;5064990;28;20677;-74
2023/02/11 12:13:09;;;;;;;35.25;15.75;;;10.10;99.90;;;;;;5071618;28;20351;-75
2023/02/11 12:15:44;;;;;;;34.42;14.90;;;10.20;99.90;;;;;;5071896;28;20580;-76
2023/02/11 12:18:25;;;;;;;24.70;13.57;;;10.30;99.90;;;;;;5067612;28;20199;-77
2023/02/11 12:21:12;;;;;;;26.42;13.30;;;10.30;99.90;;;;;;5067111;28;20588;-75
2023/02/11 12:23:54;;;;;;;20.60;13.15;;;10.30;99.90;;;;;;5068693;28;20214;-76
2023/02/11 12:26:23;;;;;;;26.85;13.55;;;10.30;99.90;;;;;;5065151;28;20272;-75
2023/02/11 12:29:02;;;;;;;19.25;12.35;;;10.40;99.90;;;;;;5068489;28;20195;-79
2023/02/11 12:31:42;;;;;;;24.42;13.57;;;10.50;99.90;;;;;;5073493;28;20292;-74
2023/02/11 12:34:36;;;;;;;17.52;12.15;;;10.60;99.90;;;;;;5068846;28;20682;-73
2023/02/11 12:37:14;;;;;;;18.23;11.80;;;10.60;99.90;;;;;;5060409;28;20298;-75
2023/02/11 12:39:47;;;;;;;19.67;11.55;;;10.70;99.90;;;;;;5063993;28;20213;-75
2023/02/11 12:45:33;;;;;;;34.00;13.07;;;10.80;99.90;;;;;;5040313;28;20636;-73
2023/02/11 12:48:11;;;;;;;25.88;13.50;;;10.80;99.90;;;;;;5065901;28;20663;-74
2023/02/11 12:50:49;;;;;;;25.02;11.90;;;10.70;99.90;;;;;;5062090;28;20648;-73
2023/02/11 12:53:36;;;;;;;22.17;12.88;;;10.80;99.90;;;;;;5055547;28;20290;-74
2023/02/11 12:56:10;;;;;;;23.27;13.75;;;10.70;99.90;;;;;;5076926;28;20222;-73
2023/02/11 12:58:38;;;;;;;22.90;12.15;;;10.70;99.90;;;;;;5064612;28;20210;-72
2023/02/11 13:01:09;;;;;;;20.83;13.68;;;10.70;99.90;;;;;;5060100;28;20281;-73
2023/02/11 13:03:41;;;;;;;22.45;11.68;;;10.80;99.90;;;;;;5058812;28;20196;-73